createdAt,value
2018-07-14T00:02:25.567Z,20.60
2018-07-14T00:04:54.476Z,20.57
2018-07-14T00:07:23.644Z,20.54
2018-07-14T00:09:52.564Z,20.56
2018-07-14T00:12:21.500Z,20.57
2018-07-14T00:14:50.412Z,20.47
2018-07-14T00:17:19.295Z,20.51
2018-07-14T00:19:48.212Z,20.54
2018-07-14T00:22:17.235Z,20.54
2018-07-14T00:24:46.143Z,20.45
2018-07-14T00:27:15.222Z,20.44
2018-07-14T00:29:44.156Z,20.40
2018-07-14T00:32:13.192Z,20.40
2018-07-14T00:34:42.133Z,20.37
2018-07-14T00:37:11.025Z,20.36
2018-07-14T00:39:39.936Z,20.34
2018-07-14T00:42:08.831Z,20.27
2018-07-14T00:44:37.921Z,20.19
2018-07-14T00:47:06.814Z,20.20
2018-07-14T00:49:35.723Z,20.22
2018-07-14T00:52:04.757Z,20.18
2018-07-14T00:54:33.655Z,20.16
2018-07-14T00:57:02.559Z,20.15
2018-07-14T00:59:31.454Z,20.17
2018-07-14T01:02:00.422Z,20.14
2018-07-14T01:04:29.316Z,20.14
2018-07-14T01:06:58.208Z,20.08
2018-07-14T01:09:27.087Z,20.06
2018-07-14T01:11:55.981Z,20.06
2018-07-14T01:14:24.908Z,19.99
2018-07-14T01:16:53.783Z,20.02
2018-07-14T01:19:22.913Z,20.01
2018-07-14T01:21:51.822Z,19.91
2018-07-14T01:24:20.734Z,19.86
2018-07-14T01:26:49.628Z,19.87
2018-07-14T01:29:18.529Z,19.92
2018-07-14T01:31:47.414Z,19.85
2018-07-14T01:34:16.305Z,19.87
2018-07-14T01:36:45.220Z,19.85
2018-07-14T01:39:14.161Z,19.80
2018-07-14T01:41:43.061Z,19.80
2018-07-14T01:44:11.994Z,19.80
2018-07-14T01:46:40.889Z,19.75
2018-07-14T01:49:09.812Z,19.71
2018-07-14T01:51:38.707Z,19.69
2018-07-14T01:54:07.972Z,19.69
2018-07-14T01:56:36.937Z,19.69
2018-07-14T01:59:05.990Z,19.68
2018-07-14T02:01:34.893Z,19.58
2018-07-14T02:04:03.786Z,19.47
2018-07-14T02:06:32.704Z,19.38
2018-07-14T02:09:01.615Z,19.37
2018-07-14T02:11:30.524Z,19.44
2018-07-14T02:13:59.426Z,19.42
2018-07-14T02:16:28.333Z,19.46
2018-07-14T02:18:57.249Z,19.40
2018-07-14T02:21:26.166Z,19.32
2018-07-14T02:23:55.584Z,19.26
2018-07-14T02:26:24.499Z,19.21
2018-07-14T02:28:53.409Z,19.28
2018-07-14T02:31:22.313Z,19.30
2018-07-14T02:33:51.208Z,19.31
2018-07-14T02:36:20.113Z,19.20
2018-07-14T02:38:49.058Z,19.29
2018-07-14T02:41:17.961Z,19.16
2018-07-14T02:43:47.073Z,19.10
2018-07-14T02:46:15.996Z,19.03
2018-07-14T02:48:44.872Z,18.95
2018-07-14T02:51:13.792Z,18.96
2018-07-14T02:53:42.964Z,18.99
2018-07-14T02:56:11.850Z,19.02
2018-07-14T02:58:40.775Z,19.04
2018-07-14T03:01:09.701Z,18.96
2018-07-14T03:03:38.640Z,18.98
2018-07-14T03:06:07.538Z,18.92
2018-07-14T03:08:36.564Z,18.96
2018-07-14T03:11:05.474Z,18.97
2018-07-14T03:13:34.394Z,18.92
2018-07-14T03:16:03.308Z,18.89
2018-07-14T03:18:32.227Z,18.82
2018-07-14T03:21:01.311Z,18.83
2018-07-14T03:23:30.198Z,18.79
2018-07-14T03:25:59.128Z,18.83
2018-07-14T03:28:28.060Z,18.78
2018-07-14T03:30:56.963Z,18.76
2018-07-14T03:33:25.866Z,18.73
2018-07-14T03:35:54.761Z,18.76
2018-07-14T03:38:23.666Z,18.66
2018-07-14T03:40:52.601Z,18.71
2018-07-14T03:43:21.479Z,18.73
2018-07-14T03:45:50.475Z,18.64
2018-07-14T03:48:19.410Z,18.65
2018-07-14T03:50:51.575Z,18.64
2018-07-14T03:53:20.476Z,18.64
2018-07-14T03:55:49.406Z,18.69
2018-07-14T03:58:18.325Z,18.59
2018-07-14T04:00:47.244Z,18.52
2018-07-14T04:03:16.378Z,18.60
2018-07-14T04:05:45.389Z,18.56
2018-07-14T04:08:14.560Z,18.54
2018-07-14T04:10:43.453Z,18.66
2018-07-14T04:13:12.370Z,18.64
2018-07-14T04:15:41.273Z,18.65
2018-07-14T04:18:10.167Z,18.68
2018-07-14T04:20:39.081Z,18.71
2018-07-14T04:23:07.985Z,18.64
2018-07-14T04:25:36.901Z,18.61
2018-07-14T04:28:05.855Z,18.62
2018-07-14T04:30:34.774Z,18.52
2018-07-14T04:33:03.681Z,18.60
2018-07-14T04:35:32.576Z,18.54
2018-07-14T04:38:01.481Z,18.56
2018-07-14T04:40:30.389Z,18.56
2018-07-14T04:42:59.371Z,18.56
2018-07-14T04:45:28.294Z,18.62
2018-07-14T04:47:57.215Z,18.65
2018-07-14T04:50:26.153Z,18.52
2018-07-14T04:52:55.072Z,18.60
2018-07-14T04:55:23.993Z,18.62
2018-07-14T04:57:52.903Z,18.59
2018-07-14T05:00:25.471Z,18.53
2018-07-14T05:02:54.384Z,18.62
2018-07-14T05:05:23.285Z,18.68
2018-07-14T05:07:52.255Z,18.67
2018-07-14T05:10:22.131Z,18.70
2018-07-14T05:12:51.170Z,18.72
2018-07-14T05:15:20.205Z,18.67
2018-07-14T05:17:49.237Z,18.72
2018-07-14T05:20:18.160Z,18.80
2018-07-14T05:22:47.079Z,18.81
2018-07-14T05:25:15.989Z,18.80
2018-07-14T05:27:44.926Z,18.81
2018-07-14T05:30:14.200Z,18.80
2018-07-14T05:32:43.507Z,18.83
2018-07-14T05:35:12.441Z,18.90
2018-07-14T05:37:41.354Z,19.15
2018-07-14T05:40:10.254Z,19.44
2018-07-14T05:42:39.228Z,19.36
2018-07-14T05:45:08.134Z,19.13
2018-07-14T05:47:37.056Z,19.15
2018-07-14T05:50:06.202Z,19.14
2018-07-14T05:52:35.333Z,19.22
2018-07-14T05:55:04.269Z,19.18
2018-07-14T05:57:33.229Z,19.00
2018-07-14T06:00:02.143Z,19.09
2018-07-14T06:02:31.082Z,19.02
2018-07-14T06:04:59.981Z,19.16
2018-07-14T06:07:29.017Z,19.24
2018-07-14T06:09:57.936Z,19.25
2018-07-14T06:12:26.957Z,19.26
2018-07-14T06:14:55.861Z,19.30
2018-07-14T06:17:24.925Z,19.30
2018-07-14T06:19:53.793Z,19.20
2018-07-14T06:22:22.724Z,19.34
2018-07-14T06:24:54.668Z,19.48
2018-07-14T06:27:23.569Z,19.38
2018-07-14T06:29:52.456Z,19.52
2018-07-14T06:32:21.360Z,19.42
2018-07-14T06:34:50.274Z,19.40
2018-07-14T06:37:19.190Z,19.50
2018-07-14T06:39:48.070Z,19.56
2018-07-14T06:42:16.986Z,19.64
2018-07-14T06:44:45.957Z,19.67
2018-07-14T06:47:14.860Z,19.76
2018-07-14T06:49:43.862Z,19.79
2018-07-14T06:52:12.937Z,19.83
2018-07-14T06:54:41.879Z,19.86
2018-07-14T06:57:10.787Z,19.89
2018-07-14T06:59:39.837Z,19.89
2018-07-14T07:02:08.750Z,19.94
2018-07-14T07:04:37.665Z,20.01
2018-07-14T07:07:06.571Z,20.04
2018-07-14T07:09:35.474Z,20.12
2018-07-14T07:12:04.442Z,20.07
2018-07-14T07:14:33.359Z,20.01
2018-07-14T07:17:02.312Z,20.11
2018-07-14T07:19:31.233Z,20.22
2018-07-14T07:22:00.146Z,20.28
2018-07-14T07:24:29.100Z,20.28
2018-07-14T07:26:58.071Z,20.27
2018-07-14T07:29:27.161Z,20.27
2018-07-14T07:31:56.059Z,20.23
2018-07-14T07:34:24.978Z,20.26
2018-07-14T07:36:53.906Z,20.30
2018-07-14T07:39:22.993Z,20.37
2018-07-14T07:41:51.929Z,20.39
2018-07-14T07:44:20.870Z,20.48
2018-07-14T07:46:49.821Z,20.57
2018-07-14T07:49:18.722Z,20.64
2018-07-14T07:51:47.631Z,20.70
2018-07-14T07:54:16.612Z,20.74
2018-07-14T07:56:48.759Z,20.77
2018-07-14T07:59:17.859Z,20.75
2018-07-14T08:01:46.736Z,20.71
2018-07-14T08:04:15.643Z,20.74
2018-07-14T08:06:44.549Z,20.78
2018-07-14T08:09:13.471Z,20.86
2018-07-14T08:11:42.373Z,20.91
2018-07-14T08:14:11.640Z,21.06
2018-07-14T08:16:40.536Z,21.10
2018-07-14T08:19:09.475Z,21.09
2018-07-14T08:21:38.375Z,21.12
2018-07-14T08:24:07.331Z,21.20
2018-07-14T08:26:36.473Z,21.30
2018-07-14T08:29:05.671Z,21.33
2018-07-14T08:31:34.612Z,21.39
2018-07-14T08:34:03.548Z,21.34
2018-07-14T08:36:32.449Z,21.31
2018-07-14T08:39:01.441Z,21.31
2018-07-14T08:41:30.371Z,21.40
2018-07-14T08:43:59.584Z,21.40
2018-07-14T08:46:32.409Z,21.47
2018-07-14T08:49:01.369Z,21.44
2018-07-14T08:51:30.387Z,21.42
2018-07-14T08:53:59.293Z,21.45
2018-07-14T08:56:28.190Z,21.58
2018-07-14T08:58:57.127Z,21.63
2018-07-14T09:01:26.032Z,21.64
2018-07-14T09:03:54.962Z,21.60
2018-07-14T09:06:24.205Z,21.67
2018-07-14T09:08:53.120Z,21.75
2018-07-14T09:11:22.045Z,21.77
2018-07-14T09:13:51.019Z,21.82
2018-07-14T09:16:19.952Z,21.84
2018-07-14T09:18:48.858Z,21.81
2018-07-14T09:21:17.807Z,21.85
2018-07-14T09:23:46.702Z,21.86
2018-07-14T09:26:15.607Z,21.93
2018-07-14T09:28:44.559Z,21.89
2018-07-14T09:31:13.477Z,21.87
2018-07-14T09:33:42.441Z,21.92
2018-07-14T09:36:11.404Z,22.02
2018-07-14T09:38:40.390Z,22.11
2018-07-14T09:41:09.354Z,22.12
2018-07-14T09:43:38.344Z,22.08
2018-07-14T09:46:07.300Z,22.06
2018-07-14T09:48:36.200Z,22.14
2018-07-14T09:51:05.121Z,22.21
2018-07-14T09:53:34.124Z,22.30
2018-07-14T09:56:06.690Z,22.36
2018-07-14T09:58:35.619Z,22.41
2018-07-14T10:01:07.436Z,22.45
2018-07-14T10:03:36.712Z,22.47
2018-07-14T10:06:05.676Z,22.52
2018-07-14T10:08:34.569Z,22.59
2018-07-14T10:11:03.523Z,22.61
2018-07-14T10:13:32.476Z,22.70
2018-07-14T10:16:01.409Z,22.67
2018-07-14T10:18:30.335Z,22.74
2018-07-14T10:20:59.282Z,22.87
2018-07-14T10:23:28.204Z,22.94
2018-07-14T10:25:57.136Z,22.96
2018-07-14T10:28:26.050Z,23.03
2018-07-14T10:30:54.996Z,22.96
2018-07-14T10:33:23.927Z,22.96
2018-07-14T10:35:52.858Z,22.95
2018-07-14T10:38:21.827Z,22.97
2018-07-14T10:40:50.993Z,23.01
2018-07-14T10:43:20.407Z,22.99
2018-07-14T10:45:49.344Z,23.05
2018-07-14T10:48:22.177Z,23.17
2018-07-14T10:50:51.062Z,23.24
2018-07-14T10:53:19.967Z,23.34
2018-07-14T10:55:48.930Z,23.26
2018-07-14T10:58:17.926Z,23.44
2018-07-14T11:00:46.786Z,23.59
2018-07-14T11:03:15.716Z,23.55
2018-07-14T11:05:44.622Z,23.67
2018-07-14T11:08:13.532Z,23.65
2018-07-14T11:10:42.491Z,23.74
2018-07-14T11:13:15.267Z,23.89
2018-07-14T11:15:44.221Z,24.05
2018-07-14T11:18:13.169Z,23.97
2018-07-14T11:20:42.150Z,23.97
2018-07-14T11:23:11.139Z,23.98
2018-07-14T11:25:41.051Z,23.87
2018-07-14T11:28:10.945Z,23.89
2018-07-14T11:30:39.916Z,24.00
2018-07-14T11:33:08.999Z,24.10
2018-07-14T11:35:37.913Z,24.29
2018-07-14T11:38:06.863Z,24.32
2018-07-14T11:40:35.854Z,24.16
2018-07-14T11:43:04.840Z,24.17
2018-07-14T11:45:33.908Z,24.08
2018-07-14T11:48:02.815Z,24.23
2018-07-14T11:50:34.921Z,24.43
2018-07-14T11:53:03.871Z,24.57
2018-07-14T11:55:32.801Z,24.74
2018-07-14T11:58:01.721Z,24.70
2018-07-14T12:00:33.651Z,24.74
2018-07-14T12:03:02.917Z,24.63
2018-07-14T12:05:32.071Z,24.75
2018-07-14T12:08:01.093Z,24.61
2018-07-14T12:10:29.981Z,24.54
2018-07-14T12:12:58.904Z,24.75
2018-07-14T12:15:27.804Z,24.94
2018-07-14T12:17:56.740Z,25.16
2018-07-14T12:20:25.647Z,24.89
2018-07-14T12:22:54.593Z,24.57
2018-07-14T12:25:23.519Z,24.51
2018-07-14T12:27:52.413Z,24.85
2018-07-14T12:30:21.446Z,25.10
2018-07-14T12:32:50.317Z,25.13
2018-07-14T12:35:19.231Z,25.12
2018-07-14T12:37:48.140Z,24.95
2018-07-14T12:40:17.209Z,25.07
2018-07-14T12:42:46.117Z,25.02
2018-07-14T12:45:15.025Z,25.10
2018-07-14T12:47:43.937Z,25.20
2018-07-14T12:50:12.862Z,25.23
2018-07-14T12:52:41.749Z,25.46
2018-07-14T12:55:11.665Z,25.66
2018-07-14T12:57:40.629Z,25.57
2018-07-14T13:00:09.696Z,25.38
2018-07-14T13:02:38.847Z,25.49
2018-07-14T13:05:08.103Z,25.64
2018-07-14T13:07:37.029Z,25.86
2018-07-14T13:10:06.850Z,26.08
2018-07-14T13:12:35.869Z,26.10
2018-07-14T13:15:05.052Z,26.22
2018-07-14T13:17:33.984Z,26.43
2018-07-14T13:20:03.349Z,26.51
2018-07-14T13:22:32.531Z,26.46
2018-07-14T13:25:01.669Z,26.15
2018-07-14T13:27:30.608Z,26.28
2018-07-14T13:29:59.727Z,26.34
2018-07-14T13:32:28.633Z,26.20
2018-07-14T13:34:57.801Z,26.14
2018-07-14T13:37:26.730Z,26.26
2018-07-14T13:39:55.914Z,26.36
2018-07-14T13:42:24.848Z,26.36
2018-07-14T13:44:53.755Z,26.35
2018-07-14T13:47:22.677Z,26.16
2018-07-14T13:49:51.607Z,26.11
2018-07-14T13:52:20.518Z,26.33
2018-07-14T13:54:49.411Z,26.37
2018-07-14T13:57:18.437Z,26.52
2018-07-14T13:59:47.279Z,26.58
2018-07-14T14:02:16.204Z,26.63
2018-07-14T14:04:45.107Z,26.49
2018-07-14T14:07:14.030Z,26.51
2018-07-14T14:09:42.957Z,26.55
2018-07-14T14:12:11.902Z,26.53
2018-07-14T14:14:44.436Z,26.30
2018-07-14T14:17:13.327Z,26.26
2018-07-14T14:19:45.699Z,26.21
2018-07-14T14:22:18.025Z,26.24
2018-07-14T14:24:46.961Z,26.40
2018-07-14T14:27:15.866Z,26.61
2018-07-14T14:29:44.776Z,26.74
2018-07-14T14:32:13.841Z,26.52
2018-07-14T14:34:42.731Z,26.71
2018-07-14T14:37:11.635Z,26.74
2018-07-14T14:39:40.530Z,26.48
2018-07-14T14:42:09.438Z,26.46
2018-07-14T14:44:38.383Z,26.55
2018-07-14T14:47:07.277Z,26.48
2018-07-14T14:49:36.180Z,26.44
2018-07-14T14:52:05.405Z,26.51
2018-07-14T14:54:34.682Z,26.46
2018-07-14T14:57:07.571Z,26.60
2018-07-14T14:59:36.749Z,26.57
2018-07-14T15:02:05.697Z,26.52
2018-07-14T15:04:34.565Z,26.56
2018-07-14T15:07:03.483Z,26.54
2018-07-14T15:09:32.377Z,26.35
2018-07-14T15:12:01.301Z,26.19
2018-07-14T15:14:30.234Z,26.30
2018-07-14T15:16:59.316Z,26.48
2018-07-14T15:19:28.424Z,26.68
2018-07-14T15:21:57.695Z,26.65
2018-07-14T15:24:26.641Z,26.57
2018-07-14T15:26:55.548Z,26.59
2018-07-14T15:29:24.482Z,26.55
2018-07-14T15:31:53.409Z,26.49
2018-07-14T15:34:22.364Z,26.43
2018-07-14T15:36:51.264Z,26.38
2018-07-14T15:39:20.294Z,26.39
2018-07-14T15:41:49.207Z,26.36
2018-07-14T15:44:18.134Z,26.43
2018-07-14T15:46:47.578Z,26.36
2018-07-14T15:49:17.663Z,26.38
2018-07-14T15:51:46.593Z,26.44
2018-07-14T15:54:15.543Z,26.44
2018-07-14T15:56:44.469Z,26.23
2018-07-14T15:59:13.438Z,26.32
2018-07-14T16:01:42.392Z,26.21
2018-07-14T16:04:11.311Z,26.21
2018-07-14T16:06:40.238Z,26.23
2018-07-14T16:09:09.191Z,26.10
2018-07-14T16:11:41.764Z,26.08
2018-07-14T16:14:10.709Z,26.04
2018-07-14T16:16:39.636Z,26.03
2018-07-14T16:19:08.634Z,26.09
2018-07-14T16:21:37.705Z,26.09
2018-07-14T16:24:06.647Z,26.11
2018-07-14T16:26:35.553Z,26.14
2018-07-14T16:29:04.474Z,26.12
2018-07-14T16:31:33.513Z,26.02
2018-07-14T16:34:02.418Z,26.01
2018-07-14T16:36:31.357Z,26.03
2018-07-14T16:39:00.266Z,26.05
2018-07-14T16:41:29.179Z,26.03
2018-07-14T16:43:58.094Z,26.07
2018-07-14T16:46:27.027Z,26.01
2018-07-14T16:48:55.955Z,25.97
2018-07-14T16:51:25.143Z,25.98
2018-07-14T16:53:54.123Z,26.03
2018-07-14T16:56:23.007Z,26.01
2018-07-14T16:58:52.469Z,26.03
2018-07-14T17:01:21.418Z,25.97
2018-07-14T17:03:50.296Z,26.00
2018-07-14T17:06:19.227Z,25.96
2018-07-14T17:08:48.123Z,25.88
2018-07-14T17:11:17.289Z,25.89
2018-07-14T17:13:46.269Z,25.89
2018-07-14T17:16:15.149Z,25.84
2018-07-14T17:18:44.072Z,25.81
2018-07-14T17:21:12.984Z,25.79
2018-07-14T17:23:41.878Z,25.76
2018-07-14T17:26:10.808Z,25.75
2018-07-14T17:28:39.731Z,25.76
2018-07-14T17:31:09.865Z,25.82
2018-07-14T17:33:38.926Z,25.78
2018-07-14T17:36:07.863Z,25.79
2018-07-14T17:38:36.770Z,25.75
2018-07-14T17:41:05.695Z,25.65
2018-07-14T17:43:34.596Z,25.61
2018-07-14T17:46:03.475Z,25.65
2018-07-14T17:48:32.415Z,25.64
2018-07-14T17:51:01.315Z,25.59
2018-07-14T17:53:30.201Z,25.53
2018-07-14T17:55:59.075Z,25.45
2018-07-14T17:58:27.989Z,25.43
2018-07-14T18:00:56.874Z,25.43
2018-07-14T18:03:25.766Z,25.42
2018-07-14T18:05:54.683Z,25.45
2018-07-14T18:08:23.723Z,25.39
2018-07-14T18:10:53.076Z,25.35
2018-07-14T18:13:21.985Z,25.29
2018-07-14T18:15:50.889Z,25.28
2018-07-14T18:18:19.770Z,25.21
2018-07-14T18:20:48.717Z,25.18
2018-07-14T18:23:17.631Z,25.18
2018-07-14T18:25:46.538Z,25.15
2018-07-14T18:28:15.445Z,25.13
2018-07-14T18:30:44.816Z,25.11
2018-07-14T18:33:13.711Z,25.10
2018-07-14T18:35:42.615Z,25.08
2018-07-14T18:38:11.535Z,25.06
2018-07-14T18:40:40.437Z,25.02
2018-07-14T18:43:09.509Z,25.05
2018-07-14T18:45:38.548Z,25.02
2018-07-14T18:48:07.490Z,24.97
2018-07-14T18:50:36.442Z,24.92
2018-07-14T18:53:05.485Z,24.87
2018-07-14T18:55:34.355Z,24.83
2018-07-14T18:58:03.231Z,24.80
2018-07-14T19:00:32.137Z,24.78
2018-07-14T19:03:01.281Z,24.70
2018-07-14T19:05:30.147Z,24.64
2018-07-14T19:07:59.244Z,24.60
2018-07-14T19:10:28.209Z,24.52
2018-07-14T19:12:57.112Z,24.49
2018-07-14T19:15:26.017Z,24.48
2018-07-14T19:17:54.960Z,24.42
2018-07-14T19:20:23.872Z,24.37
2018-07-14T19:22:56.391Z,24.35
2018-07-14T19:25:25.276Z,24.32
2018-07-14T19:27:54.186Z,24.23
2018-07-14T19:30:23.147Z,24.19
2018-07-14T19:32:53.020Z,24.14
2018-07-14T19:35:21.938Z,24.08
2018-07-14T19:37:50.845Z,24.02
2018-07-14T19:40:19.794Z,24.01
2018-07-14T19:42:48.747Z,23.97
2018-07-14T19:45:17.636Z,23.92
2018-07-14T19:47:46.568Z,23.84
2018-07-14T19:50:15.472Z,23.82
2018-07-14T19:52:44.395Z,23.78
2018-07-14T19:55:13.315Z,23.70
2018-07-14T19:57:42.280Z,23.64
2018-07-14T20:00:11.268Z,23.58
2018-07-14T20:02:40.181Z,23.59
2018-07-14T20:05:09.119Z,23.55
2018-07-14T20:07:38.010Z,23.44
2018-07-14T20:10:06.942Z,23.36
2018-07-14T20:12:35.961Z,23.25
2018-07-14T20:15:04.895Z,23.22
2018-07-14T20:17:33.817Z,23.20
2018-07-14T20:20:02.696Z,23.10
2018-07-14T20:22:31.621Z,22.99
2018-07-14T20:25:00.529Z,22.94
2018-07-14T20:27:29.413Z,22.86
2018-07-14T20:29:58.420Z,22.77
2018-07-14T20:32:27.329Z,22.64
2018-07-14T20:34:57.184Z,22.59
2018-07-14T20:37:26.330Z,22.46
2018-07-14T20:39:55.278Z,22.44
2018-07-14T20:42:24.280Z,22.33
2018-07-14T20:44:53.204Z,22.30
2018-07-14T20:47:22.160Z,22.13
2018-07-14T20:49:51.160Z,22.15
2018-07-14T20:52:20.477Z,22.12
2018-07-14T20:54:49.330Z,22.10
2018-07-14T20:57:18.264Z,22.06
2018-07-14T20:59:47.382Z,22.02
2018-07-14T21:02:16.329Z,21.99
2018-07-14T21:04:45.502Z,21.99
2018-07-14T21:07:14.731Z,21.99
2018-07-14T21:09:43.657Z,22.00
2018-07-14T21:12:12.586Z,21.93
2018-07-14T21:14:42.019Z,21.85
2018-07-14T21:17:12.022Z,21.91
2018-07-14T21:19:40.933Z,21.86
2018-07-14T21:22:10.005Z,21.82
2018-07-14T21:24:38.967Z,21.78
2018-07-14T21:27:07.934Z,21.77
2018-07-14T21:29:36.856Z,21.71
2018-07-14T21:32:05.869Z,21.65
2018-07-14T21:34:34.793Z,21.57
2018-07-14T21:37:03.737Z,21.53
2018-07-14T21:39:32.647Z,21.48
2018-07-14T21:42:04.800Z,21.43
2018-07-14T21:44:33.721Z,21.37
2018-07-14T21:47:02.693Z,21.37
2018-07-14T21:49:31.615Z,21.26
2018-07-14T21:52:00.520Z,21.20
2018-07-14T21:54:29.457Z,21.20
2018-07-14T21:56:58.525Z,21.19
2018-07-14T21:59:27.441Z,21.20
2018-07-14T22:01:56.374Z,21.15
2018-07-14T22:04:25.449Z,21.15
2018-07-14T22:06:54.386Z,21.14
2018-07-14T22:09:23.325Z,21.19
2018-07-14T22:13:16.694Z,21.21
2018-07-14T22:15:45.600Z,21.15
2018-07-14T22:18:14.532Z,21.13
2018-07-14T22:20:43.668Z,21.04
2018-07-14T22:23:12.595Z,21.03
2018-07-14T22:25:41.462Z,21.01
2018-07-14T22:28:10.376Z,20.92
2018-07-14T22:30:39.446Z,20.88
2018-07-14T22:33:08.328Z,20.87
2018-07-14T22:35:37.248Z,20.84
2018-07-14T22:38:06.262Z,20.89
2018-07-14T22:40:35.133Z,20.87
2018-07-14T22:43:04.166Z,20.86
2018-07-14T22:45:33.123Z,20.87
2018-07-14T22:48:02.267Z,20.88
2018-07-14T22:50:31.164Z,20.85
2018-07-14T22:53:00.109Z,20.85
2018-07-14T22:55:28.994Z,20.80
2018-07-14T22:57:57.871Z,20.79
2018-07-14T23:00:26.789Z,20.76
2018-07-14T23:02:55.904Z,20.78
2018-07-14T23:05:24.893Z,20.77
2018-07-14T23:07:53.967Z,20.79
2018-07-14T23:10:22.858Z,20.80
2018-07-14T23:12:51.791Z,20.80
2018-07-14T23:15:20.821Z,20.74
2018-07-14T23:17:49.740Z,20.73
2018-07-14T23:20:18.823Z,20.73
2018-07-14T23:22:47.793Z,20.70
2018-07-14T23:25:16.722Z,20.69
2018-07-14T23:27:45.742Z,20.73
2018-07-14T23:30:14.650Z,20.70
2018-07-14T23:32:43.577Z,20.74
2018-07-14T23:35:12.451Z,20.75
2018-07-14T23:37:41.486Z,20.65
2018-07-14T23:40:10.881Z,20.62
2018-07-14T23:42:39.965Z,20.61
2018-07-14T23:45:08.975Z,20.69
2018-07-14T23:47:37.857Z,20.70
2018-07-14T23:50:06.813Z,20.65
2018-07-14T23:52:39.306Z,20.63
2018-07-14T23:55:08.312Z,20.64
2018-07-14T23:57:37.137Z,20.54
